Iblea — IBFK — position and weather

sailwx.info

Track history (hours):
 
Tides and Currents Weather Stations Pressure Air Temp Water Temp Dewpoint Dewpoint Depression Visibility Wind Speed Wind Dir Waves Ship Positions

Iblea

Last reported at 2016-May-25 08:33 UTC. Time now 2016-May-25 09:15 UTC.
Position N 34°39' E 015°28'.

Length 176 m; draft 7 m.

Type: Ship (hazmat cat B). MMSI: 247087700.

Date/timePositionNaut miles runAvg speedWind from/ knotsBaromVisibWave heightAir tempDewpointWater temp
2016-May-25 08:33N 34°39' E 015°28'1212.2
2016-May-25 07:33N 34°28' E 015°22'1212.2
2016-May-25 06:33N 34°17' E 015°16'1312.5
2016-May-25 05:33N 34°05' E 015°10'1212.3
2016-May-25 04:33N 33°54' E 015°04'1212.4
2016-May-25 03:33N 33°43' E 014°57'1312.6
2016-May-25 02:33N 33°31' E 014°51'1312.5
2016-May-25 01:33N 33°20' E 014°45'1212.5
2016-May-25 00:33N 33°09' E 014°38'1212.4
2016-May-24 23:33N 32°57' E 014°32'1312.4
2016-May-24 22:32N 32°46' E 014°26'9 2.2
2016-May-24 18:33N 32°38' E 014°20'0 0.0
2016-May-24 16:22N 32°38' E 014°20'0 0.0
2016-May-24 13:11N 32°38' E 014°20'0 0.0
2016-May-24 12:32N 32°38' E 014°20'3 0.1
2016-May-22 16:26N 32°42' E 014°19'0 0.0
2016-May-22 15:32N 32°42' E 014°19'0 0.0
2016-May-22 13:26N 32°42' E 014°19'0 0.0
2016-May-22 12:32N 32°42' E 014°19'  
2016-May-19 18:33N 33°18' E 019°16'  
Track history (hours):
 
Tides and Currents Weather Stations Pressure Air Temp Water Temp Dewpoint Dewpoint Depression Visibility Wind Speed Wind Dir Waves Ship Positions

Iblea

Last reported at 2016-May-25 08:33 UTC. Time now 2016-May-25 09:15 UTC.
Position N 34°39' E 015°28'.

Length 176 m; draft 7 m.

Type: Ship (hazmat cat B). MMSI: 247087700.

Date/timePositionNaut miles runAvg speedWind from/ knotsBaromVisibWave heightAir tempDewpointWater temp
2016-May-25 08:33N 34°39' E 015°28'1212.2
2016-May-25 07:33N 34°28' E 015°22'1212.2
2016-May-25 06:33N 34°17' E 015°16'1312.5
2016-May-25 05:33N 34°05' E 015°10'1212.3
2016-May-25 04:33N 33°54' E 015°04'1212.4
2016-May-25 03:33N 33°43' E 014°57'1312.6
2016-May-25 02:33N 33°31' E 014°51'1312.5
2016-May-25 01:33N 33°20' E 014°45'1212.5
2016-May-25 00:33N 33°09' E 014°38'1212.4
2016-May-24 23:33N 32°57' E 014°32'1312.4
2016-May-24 22:32N 32°46' E 014°26'9 2.2
2016-May-24 18:33N 32°38' E 014°20'0 0.0
2016-May-24 16:22N 32°38' E 014°20'0 0.0
2016-May-24 13:11N 32°38' E 014°20'0 0.0
2016-May-24 12:32N 32°38' E 014°20'3 0.1
2016-May-22 16:26N 32°42' E 014°19'0 0.0
2016-May-22 15:32N 32°42' E 014°19'0 0.0
2016-May-22 13:26N 32°42' E 014°19'0 0.0
2016-May-22 12:32N 32°42' E 014°19'  
2016-May-19 18:33N 33°18' E 019°16'  

Dump ship's entire track history